Airfield :
LOGIN :

Register | Disclaimer

   EN    FR    IT 

 










Legend :    VFR   Marginal VFR   IFR   Intensive IFR   Very Intensive IFR
Visi :
Ceiling :
>= 8 km
>= 3000ft
5 to 8 km
1000 to 3000 ft
1500m to 5 km
500 to 1000 ft
800 to 1500m
200 to 500 ft
< 800m
< 200 ft
Symbols :   Thunderstorms  Fog  Heavy snow  Heavy precipitations  Wind > 20 kt
SIGMETs :     Misc.  Thunderstorms  Icing  Turbulence  Mountain Waves  Volcanic Ashes







- Airport Elevation : 17 ft
- IATA code : GRQ


EHGG - Groningen Eelde

CURRENT METAR :
  • 200655Z AUTO 23008KT 200V260 9000 FEW007 OVC015 16/15 Q1009 BECMG 9000 NSW TEMPO BKN014

EXPIRED METARs :
  • 200625Z AUTO 23007KT 7000 FEW005 SCT006 OVC021 16/15 Q1009 BECMG 9000 NSW TEMPO BKN014
  • 200555Z AUTO 24006KT 6000 FEW006 SCT008 BKN009 16/15 Q1008 BECMG 9000 NSW TEMPO BKN014
  • 200525Z AUTO 24007KT 5000 BR FEW005 BKN006 BKN008 16/15 Q1008 BECMG 6000 NSW TEMPO BKN014
  • 200455Z AUTO 24006KT 3400 BR FEW005 SCT006 BKN007 16/15 Q1008 TEMPO BKN014
  • 200425Z AUTO 27006KT 220V300 3300 BR FEW006 BKN010 BKN014 16/15 Q1007 TEMPO BKN008

TAF TAF EHGG
Valid from the 20 at 06:00 until the 21 at 12:00 UTC


200511Z 2006/2112 26007KT 3500 BR BKN008
PROB30
TEMPO 2006/2017 6000 SHRA RA BKN020 SCT030CB
BECMG 2007/2010 9999 NSW SCT020
BECMG 2021/2024 6000
PROB40 2023/2106 4000 BR
PROB30
TEMPO 2104/2112 6000 -RA -SHRA SCT014 BKN018 SCT020TCU
BECMG 2105/2107 9999
No reported NOTAMs for that airfield.



MET'MAP, your aeronautical weather chart ! - Copyright ORBIFLY December 2007 - Disclaimer

ORBIFLY MET'MAP TEAM :

Programming & Development : Alexandra Zaïnal
Concept & Development : Baudouin d'Aumeries
Co-Development & Prog : Marc-Olivier Méhu
Technical & hardware support : Manuel Goepfert

Contact : metmap@orbifly.com




SOURCES & CREDITS :

   NOAA